createdAt,value
2018-07-08T00:01:34.498Z,18.50
2018-07-08T00:04:03.617Z,18.30
2018-07-08T00:06:33.207Z,18.30
2018-07-08T00:09:02.359Z,18.20
2018-07-08T00:11:31.623Z,18.20
2018-07-08T00:14:00.757Z,18.10
2018-07-08T00:16:29.961Z,18.10
2018-07-08T00:18:59.114Z,18.10
2018-07-08T00:21:28.346Z,18.10
2018-07-08T00:23:57.564Z,18.10
2018-07-08T00:26:26.744Z,18.10
2018-07-08T00:28:55.896Z,18.20
2018-07-08T00:31:25.055Z,18.10
2018-07-08T00:33:54.244Z,17.90
2018-07-08T00:36:23.397Z,17.90
2018-07-08T00:38:52.539Z,18.00
2018-07-08T00:41:21.695Z,18.10
2018-07-08T00:43:50.898Z,18.00
2018-07-08T00:46:20.131Z,18.00
2018-07-08T00:48:49.343Z,18.00
2018-07-08T00:51:18.444Z,17.90
2018-07-08T00:53:47.595Z,17.80
2018-07-08T00:56:16.732Z,17.80
2018-07-08T00:58:45.927Z,17.70
2018-07-08T01:01:15.134Z,17.70
2018-07-08T01:03:44.231Z,17.60
2018-07-08T01:06:13.409Z,17.60
2018-07-08T01:08:42.557Z,17.60
2018-07-08T01:11:11.747Z,17.60
2018-07-08T01:13:40.985Z,17.60
2018-07-08T01:16:10.190Z,17.50
2018-07-08T01:18:39.440Z,17.50
2018-07-08T01:21:08.600Z,17.60
2018-07-08T01:23:37.760Z,17.50
2018-07-08T01:26:10.101Z,17.40
2018-07-08T01:28:39.892Z,17.40
2018-07-08T01:31:09.594Z,17.50
2018-07-08T01:33:38.978Z,17.40
2018-07-08T01:36:08.590Z,17.40
2018-07-08T01:38:37.702Z,17.40
2018-07-08T01:41:07.131Z,17.50
2018-07-08T01:43:36.335Z,17.40
2018-07-08T01:46:05.923Z,17.40
2018-07-08T01:48:35.202Z,17.30
2018-07-08T01:51:04.373Z,17.20
2018-07-08T01:53:33.577Z,17.10
2018-07-08T01:56:02.769Z,17.10
2018-07-08T01:58:31.899Z,17.00
2018-07-08T02:01:01.020Z,16.90
2018-07-08T02:03:30.201Z,16.80
2018-07-08T02:05:59.360Z,16.80
2018-07-08T02:08:28.483Z,16.80
2018-07-08T02:10:57.668Z,16.70
2018-07-08T02:13:26.822Z,16.70
2018-07-08T02:15:55.974Z,16.70
2018-07-08T02:18:25.135Z,16.70
2018-07-08T02:20:54.301Z,16.70
2018-07-08T02:23:23.565Z,16.60
2018-07-08T02:25:52.699Z,16.60
2018-07-08T02:28:21.945Z,16.70
2018-07-08T02:30:51.215Z,16.60
2018-07-08T02:33:20.352Z,16.60
2018-07-08T02:35:50.155Z,16.70
2018-07-08T02:38:19.407Z,16.60
2018-07-08T02:40:48.505Z,16.60
2018-07-08T02:43:17.699Z,16.60
2018-07-08T02:45:46.900Z,16.60
2018-07-08T02:48:16.090Z,16.70
2018-07-08T02:50:45.302Z,16.70
2018-07-08T02:53:14.512Z,16.60
2018-07-08T02:55:43.697Z,16.60
2018-07-08T02:58:12.876Z,16.60
2018-07-08T03:00:42.036Z,16.60
2018-07-08T03:03:11.166Z,16.60
2018-07-08T03:05:40.347Z,16.60
2018-07-08T03:08:09.489Z,16.60
2018-07-08T03:10:38.657Z,16.70
2018-07-08T03:13:07.815Z,16.70
2018-07-08T03:15:36.939Z,16.70
2018-07-08T03:18:06.293Z,16.70
2018-07-08T03:20:35.420Z,16.70
2018-07-08T03:23:04.618Z,16.70
2018-07-08T03:25:33.820Z,16.70
2018-07-08T03:28:02.972Z,16.60
2018-07-08T03:30:32.149Z,16.50
2018-07-08T03:33:01.296Z,16.50
2018-07-08T03:35:30.384Z,16.60
2018-07-08T03:37:59.582Z,16.60
2018-07-08T03:40:28.738Z,16.60
2018-07-08T03:42:57.961Z,16.70
2018-07-08T03:45:27.154Z,16.70
2018-07-08T03:47:56.306Z,16.90
2018-07-08T03:50:25.448Z,16.90
2018-07-08T03:52:54.571Z,16.90
2018-07-08T03:55:23.734Z,16.90
2018-07-08T03:57:52.921Z,16.90
2018-07-08T04:00:22.109Z,17.00
2018-07-08T04:02:51.288Z,17.10
2018-07-08T04:05:20.441Z,17.20
2018-07-08T04:07:49.652Z,17.30
2018-07-08T04:10:18.812Z,17.30
2018-07-08T04:12:47.940Z,17.40
2018-07-08T04:15:17.186Z,17.50
2018-07-08T04:17:46.318Z,17.70
2018-07-08T04:20:15.471Z,17.50
2018-07-08T04:22:44.594Z,17.70
2018-07-08T04:25:13.737Z,17.80
2018-07-08T04:27:42.902Z,18.00
2018-07-08T04:30:12.010Z,18.00
2018-07-08T04:32:41.211Z,18.00
2018-07-08T04:35:10.391Z,18.10
2018-07-08T04:37:39.525Z,18.40
2018-07-08T04:40:08.639Z,18.50
2018-07-08T04:42:37.861Z,18.50
2018-07-08T04:45:07.062Z,18.50
2018-07-08T04:47:36.226Z,18.50
2018-07-08T04:50:05.400Z,18.60
2018-07-08T04:52:34.541Z,18.70
2018-07-08T04:55:03.713Z,19.00
2018-07-08T04:57:33.019Z,19.00
2018-07-08T05:00:02.414Z,19.10
2018-07-08T05:02:31.567Z,19.10
2018-07-08T05:05:00.899Z,19.00
2018-07-08T05:07:30.130Z,19.00
2018-07-08T05:09:59.338Z,18.90
2018-07-08T05:12:28.470Z,18.90
2018-07-08T05:14:57.837Z,18.80
2018-07-08T05:17:26.928Z,18.70
2018-07-08T05:19:56.246Z,18.80
2018-07-08T05:22:25.466Z,18.90
2018-07-08T05:24:54.782Z,19.10
2018-07-08T05:27:24.038Z,19.30
2018-07-08T05:29:53.269Z,19.30
2018-07-08T05:32:22.418Z,19.40
2018-07-08T05:34:51.633Z,19.60
2018-07-08T05:37:20.797Z,19.30
2018-07-08T05:39:49.927Z,19.20
2018-07-08T05:42:19.147Z,19.00
2018-07-08T05:44:48.358Z,19.00
2018-07-08T05:47:17.484Z,19.10
2018-07-08T05:49:47.498Z,19.20
2018-07-08T05:52:16.575Z,19.40
2018-07-08T05:54:45.745Z,19.50
2018-07-08T05:57:14.921Z,19.30
2018-07-08T05:59:44.154Z,19.30
2018-07-08T06:02:13.936Z,19.40
2018-07-08T06:04:43.055Z,19.40
2018-07-08T06:07:12.222Z,19.50
2018-07-08T06:09:41.410Z,19.50
2018-07-08T06:12:10.545Z,19.70
2018-07-08T06:14:39.738Z,19.80
2018-07-08T06:17:08.902Z,19.80
2018-07-08T06:19:38.101Z,19.70
2018-07-08T06:22:07.662Z,19.70
2018-07-08T06:24:37.139Z,19.80
2018-07-08T06:27:06.324Z,19.70
2018-07-08T06:29:35.558Z,19.80
2018-07-08T06:32:05.243Z,19.90
2018-07-08T06:34:34.778Z,20.20
2018-07-08T06:37:04.115Z,20.20
2018-07-08T06:39:33.304Z,20.40
2018-07-08T06:42:02.431Z,20.40
2018-07-08T06:44:31.654Z,20.40
2018-07-08T06:47:00.809Z,20.60
2018-07-08T06:49:30.048Z,20.50
2018-07-08T06:51:59.229Z,20.80
2018-07-08T06:54:28.362Z,20.70
2018-07-08T06:56:58.424Z,20.80
2018-07-08T06:59:27.936Z,20.70
2018-07-08T07:01:57.102Z,20.70
2018-07-08T07:04:26.249Z,20.80
2018-07-08T07:06:55.383Z,20.80
2018-07-08T07:09:24.517Z,20.80
2018-07-08T07:11:53.663Z,20.90
2018-07-08T07:14:22.825Z,20.80
2018-07-08T07:16:51.978Z,20.80
2018-07-08T07:19:21.083Z,20.70
2018-07-08T07:21:50.212Z,20.50
2018-07-08T07:24:19.336Z,20.40
2018-07-08T07:26:48.505Z,20.60
2018-07-08T07:29:17.650Z,20.80
2018-07-08T07:31:46.873Z,20.90
2018-07-08T07:34:16.030Z,20.70
2018-07-08T07:36:45.166Z,20.90
2018-07-08T07:39:14.334Z,21.00
2018-07-08T07:41:43.547Z,21.10
2018-07-08T07:44:12.625Z,21.60
2018-07-08T07:46:41.755Z,22.00
2018-07-08T07:49:10.907Z,21.80
2018-07-08T07:51:40.045Z,21.90
2018-07-08T07:54:09.446Z,21.80
2018-07-08T07:56:38.609Z,21.90
2018-07-08T07:59:07.873Z,22.10
2018-07-08T08:01:36.993Z,22.50
2018-07-08T08:04:06.200Z,22.40
2018-07-08T08:06:36.535Z,22.50
2018-07-08T08:09:06.895Z,22.80
2018-07-08T08:11:36.045Z,22.80
2018-07-08T08:14:06.667Z,22.90
2018-07-08T08:16:36.320Z,23.10
2018-07-08T08:19:05.559Z,23.20
2018-07-08T08:21:36.030Z,23.00
2018-07-08T08:24:05.239Z,23.50
2018-07-08T08:26:34.472Z,23.50
2018-07-08T08:29:03.669Z,23.60
2018-07-08T08:31:35.014Z,23.50
2018-07-08T08:35:11.717Z,23.30
2018-07-08T08:37:43.961Z,23.50
2018-07-08T08:40:13.878Z,23.90
2018-07-08T08:42:43.048Z,23.90
2018-07-08T08:45:13.929Z,23.90
2018-07-08T08:47:43.082Z,23.90
2018-07-08T08:50:12.843Z,23.80
2018-07-08T08:52:42.189Z,23.60
2018-07-08T08:55:12.336Z,23.40
2018-07-08T08:57:41.537Z,23.10
2018-07-08T09:00:12.745Z,23.20
2018-07-08T09:02:41.979Z,23.30
2018-07-08T09:05:11.286Z,23.50
2018-07-08T09:07:40.547Z,23.30
2018-07-08T09:10:09.734Z,23.20
2018-07-08T09:12:38.879Z,23.10
2018-07-08T09:15:08.043Z,22.80
2018-07-08T09:17:37.142Z,22.50
2018-07-08T09:20:06.616Z,22.20
2018-07-08T09:22:35.794Z,22.20
2018-07-08T09:25:05.755Z,22.20
2018-07-08T09:27:34.957Z,22.30
2018-07-08T09:30:04.409Z,22.30
2018-07-08T09:32:33.555Z,22.30
2018-07-08T09:35:02.721Z,22.40
2018-07-08T09:37:31.888Z,22.50
2018-07-08T09:40:01.082Z,22.70
2018-07-08T09:42:30.246Z,23.10
2018-07-08T09:44:59.404Z,23.50
2018-07-08T09:47:28.515Z,23.50
2018-07-08T09:49:57.689Z,23.60
2018-07-08T09:52:26.868Z,23.90
2018-07-08T09:54:56.006Z,23.70
2018-07-08T09:57:25.097Z,23.80
2018-07-08T09:59:54.306Z,23.60
2018-07-08T10:02:23.482Z,23.70
2018-07-08T10:04:52.743Z,23.90
2018-07-08T10:07:21.915Z,24.00
2018-07-08T10:09:51.078Z,24.50
2018-07-08T10:12:20.217Z,24.80
2018-07-08T10:14:49.412Z,25.20
2018-07-08T10:17:18.622Z,25.60
2018-07-08T10:19:47.923Z,25.90
2018-07-08T10:22:17.078Z,25.90
2018-07-08T10:24:46.242Z,26.00
2018-07-08T10:28:22.137Z,26.50
2018-07-08T10:30:51.675Z,27.00
2018-07-08T10:33:20.765Z,27.40
2018-07-08T10:38:29.240Z,27.70
2018-07-08T10:40:58.441Z,27.70
2018-07-08T10:43:27.735Z,28.20
2018-07-08T10:45:56.842Z,28.40
2018-07-08T10:48:25.993Z,28.50
2018-07-08T10:50:55.158Z,28.30
2018-07-08T10:53:24.332Z,28.50
2018-07-08T10:55:53.590Z,28.40
2018-07-08T10:58:22.771Z,28.00
2018-07-08T11:00:51.944Z,27.60
2018-07-08T11:03:22.148Z,27.30
2018-07-08T11:05:51.370Z,27.60
2018-07-08T11:08:20.549Z,27.90
2018-07-08T11:10:49.792Z,28.10
2018-07-08T11:13:18.906Z,27.90
2018-07-08T11:15:48.035Z,28.00
2018-07-08T11:18:17.284Z,28.50
2018-07-08T11:20:48.281Z,28.30
2018-07-08T11:23:17.430Z,28.50
2018-07-08T11:25:46.593Z,28.40
2018-07-08T11:28:15.705Z,28.50
2018-07-08T11:30:44.859Z,28.30
2018-07-08T11:33:14.054Z,28.30
2018-07-08T11:35:43.209Z,28.50
2018-07-08T11:38:12.340Z,28.40
2018-07-08T11:40:41.461Z,28.00
2018-07-08T11:43:10.650Z,27.80
2018-07-08T11:45:39.902Z,27.90
2018-07-08T11:48:09.054Z,27.40
2018-07-08T11:50:38.169Z,27.00
2018-07-08T11:53:07.308Z,26.80
2018-07-08T11:55:36.437Z,26.50
2018-07-08T11:58:05.587Z,26.60
2018-07-08T12:00:34.835Z,26.60
2018-07-08T12:03:04.025Z,26.20
2018-07-08T12:05:33.165Z,26.40
2018-07-08T12:08:02.387Z,26.80
2018-07-08T12:10:31.627Z,27.30
2018-07-08T12:13:00.822Z,27.50
2018-07-08T12:15:30.228Z,27.90
2018-07-08T12:17:59.414Z,28.10
2018-07-08T12:20:28.528Z,28.40
2018-07-08T12:22:57.690Z,28.50
2018-07-08T12:25:26.893Z,28.70
2018-07-08T12:27:56.018Z,28.90
2018-07-08T12:30:25.185Z,29.00
2018-07-08T12:32:54.481Z,31.20
2018-07-08T12:35:23.775Z,31.40
2018-07-08T12:37:53.041Z,33.60
2018-07-08T12:40:22.138Z,34.10
2018-07-08T12:42:51.417Z,33.80
2018-07-08T12:45:20.556Z,34.10
2018-07-08T12:47:49.806Z,34.90
2018-07-08T12:50:18.936Z,37.30
2018-07-08T12:52:48.047Z,38.80
2018-07-08T12:55:17.136Z,39.50
2018-07-08T12:57:46.281Z,41.90
2018-07-08T13:00:15.363Z,43.20
2018-07-08T13:02:44.653Z,43.40
2018-07-08T13:05:13.982Z,43.70
2018-07-08T13:07:43.288Z,43.50
2018-07-08T13:10:12.594Z,43.40
2018-07-08T13:12:41.864Z,43.70
2018-07-08T13:15:13.304Z,44.90
2018-07-08T13:17:42.827Z,45.70
2018-07-08T13:20:12.100Z,46.80
2018-07-08T13:22:41.270Z,47.80
2018-07-08T13:25:10.525Z,48.90
2018-07-08T13:27:39.818Z,48.60
2018-07-08T13:30:09.098Z,49.20
2018-07-08T13:32:38.311Z,50.00
2018-07-08T13:35:07.378Z,50.30
2018-07-08T13:37:36.564Z,50.10
2018-07-08T13:40:06.078Z,51.00
2018-07-08T13:42:35.511Z,50.40
2018-07-08T13:45:04.660Z,50.20
2018-07-08T13:47:33.937Z,51.40
2018-07-08T13:50:03.201Z,52.50
2018-07-08T13:52:32.325Z,53.10
2018-07-08T13:55:01.497Z,52.90
2018-07-08T13:57:30.652Z,51.00
2018-07-08T13:59:59.731Z,49.20
2018-07-08T14:02:28.848Z,47.50
2018-07-08T14:04:58.021Z,45.70
2018-07-08T14:07:27.164Z,43.90
2018-07-08T14:09:56.541Z,41.80
2018-07-08T14:12:25.708Z,42.40
2018-07-08T14:14:54.994Z,43.30
2018-07-08T14:17:24.198Z,45.00
2018-07-08T14:19:53.672Z,45.20
2018-07-08T14:22:22.882Z,44.10
2018-07-08T14:24:52.098Z,42.70
2018-07-08T14:27:21.193Z,44.50
2018-07-08T14:29:50.339Z,46.60
2018-07-08T14:32:19.505Z,48.30
2018-07-08T14:34:48.774Z,50.40
2018-07-08T14:37:17.927Z,51.10
2018-07-08T14:39:47.011Z,51.20
2018-07-08T14:42:16.221Z,51.30
2018-07-08T14:44:45.457Z,51.80
2018-07-08T14:47:14.499Z,50.70
2018-07-08T14:49:43.669Z,51.30
2018-07-08T14:52:12.753Z,52.00
2018-07-08T14:54:41.937Z,49.70
2018-07-08T14:57:11.092Z,51.20
2018-07-08T14:59:40.258Z,52.10
2018-07-08T15:02:09.461Z,52.50
2018-07-08T15:04:38.856Z,51.30
2018-07-08T15:07:07.977Z,50.00
2018-07-08T15:09:37.167Z,49.90
2018-07-08T15:12:06.455Z,49.20
2018-07-08T15:14:35.646Z,49.30
2018-07-08T15:17:04.798Z,50.30
2018-07-08T15:19:33.925Z,50.30
2018-07-08T15:22:03.105Z,50.20
2018-07-08T15:24:32.295Z,50.20
2018-07-08T15:27:01.514Z,51.40
2018-07-08T15:29:30.675Z,52.40
2018-07-08T15:31:59.749Z,53.00
2018-07-08T15:34:29.094Z,51.60
2018-07-08T15:36:58.127Z,50.10
2018-07-08T15:39:27.457Z,47.80
2018-07-08T15:41:56.616Z,45.30
2018-07-08T15:44:25.843Z,43.60
2018-07-08T15:46:55.098Z,43.00
2018-07-08T15:49:24.291Z,43.30
2018-07-08T15:51:53.408Z,42.90
2018-07-08T15:54:22.949Z,41.70
2018-07-08T15:56:52.158Z,39.70
2018-07-08T15:59:21.383Z,38.30
2018-07-08T16:01:50.629Z,36.90
2018-07-08T16:04:19.737Z,35.90
2018-07-08T16:06:48.854Z,34.80
2018-07-08T16:09:18.054Z,34.10
2018-07-08T16:11:47.229Z,34.00
2018-07-08T16:14:16.381Z,34.40
2018-07-08T16:16:45.554Z,35.70
2018-07-08T16:19:14.721Z,36.00
2018-07-08T16:21:43.852Z,37.30
2018-07-08T16:24:13.011Z,39.50
2018-07-08T16:26:42.206Z,41.20
2018-07-08T16:29:11.410Z,41.50
2018-07-08T16:31:40.513Z,40.80
2018-07-08T16:34:09.697Z,40.10
2018-07-08T16:36:39.105Z,39.00
2018-07-08T16:39:08.330Z,38.20
2018-07-08T16:41:37.525Z,37.30
2018-07-08T16:44:06.697Z,36.30
2018-07-08T16:46:35.781Z,35.60
2018-07-08T16:49:04.929Z,35.10
2018-07-08T16:51:34.146Z,34.60
2018-07-08T16:54:03.303Z,34.30
2018-07-08T16:56:32.525Z,34.00
2018-07-08T16:59:01.630Z,34.70
2018-07-08T17:01:30.817Z,34.80
2018-07-08T17:04:00.009Z,34.50
2018-07-08T17:06:29.169Z,34.20
2018-07-08T17:08:58.385Z,34.60
2018-07-08T17:11:28.007Z,36.00
2018-07-08T17:13:57.349Z,37.30
2018-07-08T17:16:26.477Z,38.90
2018-07-08T17:18:55.687Z,39.70
2018-07-08T17:21:24.823Z,39.10
2018-07-08T17:23:54.030Z,38.50
2018-07-08T17:26:23.204Z,38.60
2018-07-08T17:28:52.692Z,38.40
2018-07-08T17:31:21.909Z,38.10
2018-07-08T17:33:51.168Z,37.90
2018-07-08T17:36:20.319Z,37.70
2018-07-08T17:38:49.452Z,37.20
2018-07-08T17:41:18.867Z,36.20
2018-07-08T17:43:48.279Z,35.80
2018-07-08T17:46:17.478Z,35.10
2018-07-08T17:48:46.752Z,35.30
2018-07-08T17:51:16.037Z,35.80
2018-07-08T17:53:45.329Z,35.80
2018-07-08T17:56:15.415Z,35.40
2018-07-08T17:58:44.750Z,34.80
2018-07-08T18:01:13.928Z,34.90
2018-07-08T18:03:43.146Z,35.10
2018-07-08T18:06:12.309Z,35.30
2018-07-08T18:08:42.111Z,35.00
2018-07-08T18:11:11.398Z,35.00
2018-07-08T18:13:40.627Z,34.40
2018-07-08T18:18:40.482Z,33.00
2018-07-08T18:21:09.766Z,32.30
2018-07-08T18:23:38.907Z,31.70
2018-07-08T18:26:08.132Z,31.40
2018-07-08T18:28:37.399Z,30.90
2018-07-08T18:31:06.597Z,30.60
2018-07-08T18:33:35.889Z,30.20
2018-07-08T18:36:05.095Z,29.80
2018-07-08T18:38:34.299Z,29.50
2018-07-08T18:41:05.510Z,29.20
2018-07-08T18:43:34.638Z,29.10
2018-07-08T18:46:04.111Z,28.80
2018-07-08T18:48:33.448Z,28.50
2018-07-08T18:51:02.712Z,28.30
2018-07-08T18:53:32.009Z,28.10
2018-07-08T18:56:01.141Z,27.90
2018-07-08T18:58:30.371Z,27.70
2018-07-08T19:00:59.591Z,27.50
2018-07-08T19:03:28.734Z,27.30
2018-07-08T19:05:57.841Z,27.10
2018-07-08T19:08:26.981Z,26.90
2018-07-08T19:10:56.265Z,26.80
2018-07-08T19:13:25.403Z,26.60
2018-07-08T19:15:54.499Z,26.40
2018-07-08T19:18:23.616Z,26.30
2018-07-08T19:20:52.817Z,26.10
2018-07-08T19:23:23.462Z,25.90
2018-07-08T19:25:52.592Z,25.80
2018-07-08T19:28:21.848Z,25.60
2018-07-08T19:30:50.953Z,25.50
2018-07-08T19:33:20.164Z,25.30
2018-07-08T19:35:49.501Z,25.10
2018-07-08T19:38:18.806Z,25.10
2018-07-08T19:40:48.174Z,25.00
2018-07-08T19:43:17.376Z,24.80
2018-07-08T19:45:46.639Z,24.70
2018-07-08T19:50:44.652Z,24.60
2018-07-08T19:53:13.833Z,24.50
2018-07-08T19:55:43.024Z,24.30
2018-07-08T19:58:12.776Z,24.20
2018-07-08T20:00:41.882Z,24.20
2018-07-08T20:03:11.006Z,24.10
2018-07-08T20:05:40.244Z,24.00
2018-07-08T20:08:09.513Z,24.00
2018-07-08T20:10:38.665Z,23.90
2018-07-08T20:13:07.825Z,23.80
2018-07-08T20:15:37.019Z,23.70
2018-07-08T20:18:06.198Z,23.70
2018-07-08T20:20:35.274Z,23.70
2018-07-08T20:23:04.409Z,23.60
2018-07-08T20:25:33.622Z,23.50
2018-07-08T20:28:02.803Z,23.40
2018-07-08T20:30:31.957Z,23.40
2018-07-08T20:33:01.152Z,23.40
2018-07-08T20:35:30.279Z,23.30
2018-07-08T20:37:59.458Z,23.20
2018-07-08T20:40:28.886Z,23.10
2018-07-08T20:42:58.176Z,23.10
2018-07-08T20:45:27.329Z,23.00
2018-07-08T20:47:56.564Z,23.00
2018-07-08T20:50:25.681Z,22.90
2018-07-08T20:52:54.843Z,22.90
2018-07-08T20:55:24.077Z,22.90
2018-07-08T20:57:53.262Z,22.80
2018-07-08T21:00:22.480Z,22.80
2018-07-08T21:02:51.608Z,22.70
2018-07-08T21:05:22.681Z,22.70
2018-07-08T21:07:51.932Z,22.70
2018-07-08T21:10:22.162Z,22.60
2018-07-08T21:12:51.364Z,22.60
2018-07-08T21:15:20.477Z,22.50
2018-07-08T21:17:49.640Z,22.50
2018-07-08T21:20:18.816Z,22.40
2018-07-08T21:22:47.997Z,22.40
2018-07-08T21:25:17.421Z,22.40
2018-07-08T21:27:46.752Z,22.30
2018-07-08T21:30:15.929Z,22.20
2018-07-08T21:32:45.160Z,22.20
2018-07-08T21:35:14.327Z,22.10
2018-07-08T21:37:43.429Z,22.20
2018-07-08T21:42:42.725Z,22.10
2018-07-08T21:45:11.873Z,22.10
2018-07-08T21:47:41.104Z,22.00
2018-07-08T21:50:10.570Z,22.00
2018-07-08T21:52:39.764Z,22.00
2018-07-08T21:55:08.844Z,21.90
2018-07-08T21:57:39.589Z,21.90
2018-07-08T22:00:10.540Z,21.90
2018-07-08T22:02:40.974Z,21.90
2018-07-08T22:05:10.216Z,21.90
2018-07-08T22:07:44.701Z,22.00
2018-07-08T22:10:15.113Z,22.00
2018-07-08T22:12:44.658Z,22.00
2018-07-08T22:15:15.305Z,22.10
2018-07-08T22:17:47.562Z,22.10
2018-07-08T22:20:16.749Z,22.20
2018-07-08T22:22:45.904Z,22.20
2018-07-08T22:25:15.287Z,22.20
2018-07-08T22:27:47.649Z,22.20
2018-07-08T22:30:16.778Z,22.30
2018-07-08T22:32:45.896Z,22.30
2018-07-08T22:35:15.178Z,22.40
2018-07-08T22:37:44.405Z,22.40
2018-07-08T22:40:13.950Z,22.50
2018-07-08T22:42:42.709Z,22.50
2018-07-08T22:45:11.859Z,22.50
2018-07-08T22:47:40.995Z,22.50
2018-07-08T22:50:10.097Z,22.50
2018-07-08T22:52:39.292Z,22.50
2018-07-08T22:55:08.454Z,22.50
2018-07-08T22:57:37.872Z,22.50
2018-07-08T23:00:24.381Z,22.40
2018-07-08T23:04:09.734Z,22.40
2018-07-08T23:06:38.915Z,22.30
2018-07-08T23:09:08.103Z,22.20
2018-07-08T23:11:37.299Z,22.20
2018-07-08T23:14:06.460Z,22.20
2018-07-08T23:16:35.599Z,22.30
2018-07-08T23:19:04.750Z,22.30
2018-07-08T23:21:33.922Z,22.40
2018-07-08T23:24:03.141Z,22.40
2018-07-08T23:26:32.230Z,22.50
2018-07-08T23:29:01.480Z,22.50
2018-07-08T23:31:30.691Z,22.50
2018-07-08T23:33:59.801Z,22.50
2018-07-08T23:36:28.954Z,22.50
2018-07-08T23:38:58.085Z,22.50
2018-07-08T23:41:27.173Z,22.50
2018-07-08T23:43:56.377Z,22.50
2018-07-08T23:46:25.534Z,22.50
2018-07-08T23:48:54.609Z,22.50
2018-07-08T23:51:23.802Z,22.50
2018-07-08T23:53:53.187Z,22.50
2018-07-08T23:56:22.379Z,22.50
2018-07-08T23:58:51.661Z,22.50
